This is the latest recevied weather packets stored in our database for station/object CT1EDG-13. If no packets are shown the sender has not sent any weather packets the latest 10 day(s).
| Time | Temp. | Humidity | Pressure | Rain* | Wind** | Luminosity | Snow |
|---|---|---|---|---|---|---|---|
| 1788479014 | 30.56° C | 33% | 1008.5 hPa | 0 mm | - | - | - |
| 1788479013 | 30.56° C | 33% | 1008.5 hPa | 0 mm | - | - | - |
| 1788478413 | 31.11° C | 32% | 1008.5 hPa | 0 mm | - | - | - |
| 1788478412 | 31.11° C | 32% | 1008.5 hPa | 0 mm | - | - | - |
| 1788477814 | 30.56° C | 33% | 1008.6 hPa | 0 mm | - | - | - |
| 1788477812 | 30.56° C | 33% | 1008.6 hPa | 0 mm | - | - | - |
| 1788477214 | 30° C | 36% | 1008.8 hPa | 0 mm | - | - | - |
| 1788477212 | 30° C | 36% | 1008.8 hPa | 0 mm | - | - | - |
| 1788476614 | 30° C | 36% | 1008.8 hPa | 0 mm | - | - | - |
| 1788476612 | 30° C | 36% | 1008.8 hPa | 0 mm | - | - | - |
| 1788476012 | 29.44° C | 38% | 1008.9 hPa | 0 mm | - | - | - |
| 1788475415 | 29.44° C | 41% | 1008.6 hPa | 0 mm | - | - | - |
| 1788475412 | 29.44° C | 41% | 1008.6 hPa | 0 mm | - | - | - |
| 1788474814 | 30° C | 40% | 1008.7 hPa | 0 mm | - | - | - |
| 1788474812 | 30° C | 40% | 1008.7 hPa | 0 mm | - | - | - |
| 1788474213 | 28.89° C | 43% | 1008.8 hPa | 0 mm | - | - | - |
| 1788474212 | 28.89° C | 43% | 1008.8 hPa | 0 mm | - | - | - |
| 1788473616 | 28.89° C | 46% | 1009.2 hPa | 0 mm | - | - | - |
| 1788473612 | 28.89° C | 46% | 1009.2 hPa | 0 mm | - | - | - |
| 1788473012 | 28.33° C | 65% | 1009.5 hPa | 0 mm | - | - | - |
| 1788472413 | 27.78° C | 78% | 1009.9 hPa | 0 mm | - | - | - |
| 1788472412 | 27.78° C | 78% | 1009.9 hPa | 0 mm | - | - | - |
| 1788471814 | 27.22° C | 79% | 1010 hPa | 0 mm | - | - | - |
| 1788471814 | 27.22° C | 79% | 1010 hPa | 0 mm | - | - | - |
| 1788471213 | 27.78° C | 73% | 1010 hPa | 0 mm | - | - | - |
* Rain latest hour (hover to see other rain measurements)
** Current wind speed in m/s (hover to see current wind gust speed)